Time;durP1;ratioP1;P1;durP2;ratioP2;P2;SDS_P1;SDS_P2;PMS_P1;PMS_P2;Temp;Humidity;BMP_temperature;BMP_pressure;BME280_temperature;BME280_humidity;BME280_pressure;Samples;Min_cycle;Max_cycle;Signal;HPM_P1;HPM_P2
2023/03/25 00:00:56;;;;;;;0.70;0.70;;;18.30;54.10;;;;;;4766547;30;20695;-86
2023/03/25 00:03:33;;;;;;;0.85;0.68;;;18.30;54.00;;;;;;4766717;30;20192;-86
2023/03/25 00:06:04;;;;;;;0.80;0.60;;;18.30;53.80;;;;;;4738083;30;20230;-86
2023/03/25 00:08:30;;;;;;;0.50;0.50;;;18.30;53.90;;;;;;4775027;29;20190;-86
2023/03/25 00:11:02;;;;;;;0.55;0.55;;;18.20;53.90;;;;;;4816887;29;20165;-86
2023/03/25 00:13:34;;;;;;;0.60;0.60;;;18.30;54.00;;;;;;4802462;29;20193;-86
2023/03/25 00:16:10;;;;;;;0.43;0.43;;;18.30;54.00;;;;;;4802521;29;20223;-87
2023/03/25 00:18:46;;;;;;;0.68;0.68;;;18.30;54.00;;;;;;4787647;29;20700;-86
2023/03/25 00:21:28;;;;;;;0.90;0.70;;;18.30;54.20;;;;;;4796446;29;20190;-86
2023/03/25 00:24:08;;;;;;;0.50;0.50;;;18.20;54.10;;;;;;4820833;29;20189;-87
2023/03/25 00:26:34;;;;;;;1.00;0.52;;;18.20;54.20;;;;;;4805147;29;20278;-86
2023/03/25 00:29:05;;;;;;;0.50;0.50;;;18.20;54.20;;;;;;4835632;29;20170;-86
2023/03/25 00:31:41;;;;;;;0.40;0.40;;;18.20;54.20;;;;;;4813033;29;20192;-86
2023/03/25 00:34:13;;;;;;;0.77;0.60;;;18.20;54.00;;;;;;4784280;30;20297;-86
2023/03/25 00:36:44;;;;;;;0.90;0.70;;;18.20;54.20;;;;;;4816226;29;20344;-86
2023/03/25 00:39:38;;;;;;;0.55;0.55;;;18.30;54.20;;;;;;4799010;29;20244;-86
2023/03/25 00:42:09;;;;;;;0.65;0.60;;;18.20;54.20;;;;;;4783981;30;20211;-86
2023/03/25 00:44:40;;;;;;;0.55;0.55;;;18.10;54.20;;;;;;4798864;30;20245;-86
2023/03/25 00:47:16;;;;;;;0.47;0.47;;;18.20;54.20;;;;;;4754205;30;20234;-87
2023/03/25 00:49:48;;;;;;;0.80;0.70;;;18.20;54.20;;;;;;4770464;30;20195;-87
2023/03/25 00:52:21;;;;;;;1.58;0.65;;;18.20;54.20;;;;;;4794385;29;20187;-86
2023/03/25 00:54:51;;;;;;;0.60;0.52;;;18.20;54.10;;;;;;4786307;29;20269;-87
2023/03/25 00:57:23;;;;;;;0.47;0.47;;;18.20;54.30;;;;;;4802546;29;20214;-86
2023/03/25 00:59:59;;;;;;;0.60;0.60;;;18.20;54.20;;;;;;4767353;30;20236;-86
2023/03/25 01:02:29;;;;;;;0.60;0.60;;;18.20;54.20;;;;;;4784084;30;20183;-86
2023/03/25 01:05:00;;;;;;;0.60;0.60;;;18.20;54.10;;;;;;4768364;30;20187;-87
2023/03/25 01:07:36;;;;;;;0.50;0.50;;;18.20;54.30;;;;;;4717165;30;20193;-86
2023/03/25 01:10:10;;;;;;;1.02;0.75;;;18.20;54.20;;;;;;4750647;30;20195;-86
2023/03/25 01:12:40;;;;;;;0.60;0.60;;;18.10;54.20;;;;;;4765472;30;20661;-87
2023/03/25 01:15:13;;;;;;;0.50;0.50;;;18.20;54.20;;;;;;4776966;29;20561;-87
2023/03/25 01:17:44;;;;;;;0.52;0.52;;;18.20;54.30;;;;;;4800780;29;20786;-87
2023/03/25 01:20:16;;;;;;;0.60;0.60;;;18.20;54.40;;;;;;4800409;29;20187;-87
2023/03/25 01:22:45;;;;;;;0.63;0.63;;;18.20;54.20;;;;;;4801215;29;20187;-87
2023/03/25 01:25:14;;;;;;;0.73;0.50;;;18.20;54.10;;;;;;4800846;29;20190;-87
2023/03/25 01:27:42;;;;;;;1.02;0.70;;;18.20;54.00;;;;;;4816121;29;20194;-87
2023/03/25 01:30:13;;;;;;;0.90;0.40;;;18.20;54.20;;;;;;4821188;29;20196;-87
2023/03/25 01:32:45;;;;;;;0.50;0.50;;;18.20;54.30;;;;;;4773976;29;20209;-86
2023/03/25 01:35:19;;;;;;;0.70;0.70;;;18.20;54.10;;;;;;4804769;29;20186;-86
2023/03/25 01:37:54;;;;;;;0.70;0.60;;;18.20;54.00;;;;;;4803356;29;20336;-87
2023/03/25 01:40:33;;;;;;;0.68;0.60;;;18.20;54.00;;;;;;4804615;29;20645;-86
2023/03/25 01:42:59;;;;;;;0.77;0.60;;;18.30;54.20;;;;;;4790305;29;20193;-86
2023/03/25 01:45:29;;;;;;;0.73;0.73;;;18.20;54.00;;;;;;4764926;30;20258;-86
2023/03/25 01:48:16;;;;;;;0.88;0.70;;;18.30;54.10;;;;;;4750140;30;20683;-86
2023/03/25 01:50:45;;;;;;;1.10;0.50;;;18.10;54.20;;;;;;4751844;30;20195;-86
2023/03/25 01:53:18;;;;;;;0.77;0.60;;;18.20;54.20;;;;;;4749697;30;20188;-86
2023/03/25 01:55:46;;;;;;;0.70;0.70;;;18.20;54.20;;;;;;4766129;30;20272;-86
2023/03/25 01:58:17;;;;;;;0.95;0.50;;;18.20;54.10;;;;;;4765600;30;20680;-86
2023/03/25 02:00:49;;;;;;;0.50;0.50;;;18.20;54.20;;;;;;4756602;30;20203;-86
2023/03/25 02:03:23;;;;;;;0.47;0.45;;;18.20;54.20;;;;;;4732627;30;20207;-86
2023/03/25 02:05:55;;;;;;;0.70;0.60;;;18.10;54.20;;;;;;4715772;30;20664;-86
2023/03/25 02:08:27;;;;;;;0.60;0.60;;;18.20;54.40;;;;;;4729819;30;20671;-86
2023/03/25 02:10:54;;;;;;;0.50;0.50;;;18.20;54.40;;;;;;4730153;30;20182;-86
2023/03/25 02:13:24;;;;;;;0.68;0.50;;;18.20;54.40;;;;;;4731028;30;20205;-86
2023/03/25 02:16:18;;;;;;;0.60;0.60;;;18.10;54.50;;;;;;4729368;30;20361;-86
2023/03/25 02:19:14;;;;;;;0.90;0.50;;;18.20;54.40;;;;;;4706660;30;20191;-86
2023/03/25 02:22:25;;;;;;;0.50;0.45;;;18.10;54.40;;;;;;4730943;30;20591;-86
2023/03/25 02:25:14;;;;;;;0.70;0.70;;;18.10;54.30;;;;;;4782493;30;20195;-87
2023/03/25 02:28:11;;;;;;;0.55;0.52;;;18.10;54.50;;;;;;4783607;30;20176;-86
2023/03/25 02:30:58;;;;;;;0.55;0.50;;;18.10;54.40;;;;;;4791510;30;20220;-87
2023/03/25 02:33:56;;;;;;;0.70;0.70;;;18.10;54.60;;;;;;4791955;29;20274;-87
2023/03/25 02:36:52;;;;;;;0.68;0.60;;;18.10;54.50;;;;;;4794177;29;20225;-87
2023/03/25 02:39:27;;;;;;;0.47;0.40;;;18.10;54.60;;;;;;4822580;29;20190;-87
2023/03/25 02:42:05;;;;;;;0.40;0.40;;;18.10;54.50;;;;;;4807231;29;20202;-87
2023/03/25 02:44:46;;;;;;;0.90;0.50;;;18.10;54.60;;;;;;4809297;29;20273;-87
2023/03/25 02:47:18;;;;;;;0.40;0.40;;;18.10;54.60;;;;;;4810196;29;20213;-86
2023/03/25 02:49:53;;;;;;;0.50;0.50;;;18.10;54.70;;;;;;4809893;29;20208;-87
2023/03/25 02:52:31;;;;;;;0.60;0.60;;;18.20;54.70;;;;;;4795777;29;20209;-87
2023/03/25 02:55:00;;;;;;;0.50;0.50;;;18.10;54.10;;;;;;4796672;29;20192;-86
2023/03/25 02:57:31;;;;;;;0.57;0.57;;;18.00;54.60;;;;;;4818317;29;20675;-86
2023/03/25 02:59:58;;;;;;;0.50;0.50;;;18.10;54.80;;;;;;4789017;29;20687;-86
2023/03/25 03:02:34;;;;;;;0.50;0.50;;;18.20;54.70;;;;;;4782186;30;20279;-87
2023/03/25 03:05:30;;;;;;;0.57;0.57;;;18.10;54.60;;;;;;4753343;30;20187;-86
2023/03/25 03:08:22;;;;;;;1.05;0.40;;;18.10;54.40;;;;;;4764169;30;20260;-86
2023/03/25 03:11:12;;;;;;;0.52;0.43;;;18.10;54.60;;;;;;4764238;30;20204;-86
2023/03/25 03:13:59;;;;;;;0.70;0.68;;;18.10;54.50;;;;;;4752669;30;20272;-86
2023/03/25 03:16:59;;;;;;;0.65;0.40;;;18.10;54.60;;;;;;4735886;30;20230;-86
2023/03/25 03:19:45;;;;;;;0.68;0.57;;;18.10;54.70;;;;;;4731588;30;20193;-86
2023/03/25 03:22:51;;;;;;;0.98;0.70;;;18.10;54.70;;;;;;4717529;30;20257;-87
2023/03/25 03:25:31;;;;;;;0.60;0.50;;;18.10;54.60;;;;;;4711268;30;20190;-87
2023/03/25 03:28:05;;;;;;;0.50;0.50;;;18.10;54.80;;;;;;4697358;30;20261;-86
2023/03/25 03:30:45;;;;;;;1.25;0.50;;;18.10;54.70;;;;;;4696831;30;20190;-86
2023/03/25 03:33:33;;;;;;;0.57;0.55;;;18.10;54.90;;;;;;4697090;30;20199;-87
2023/03/25 03:36:07;;;;;;;0.73;0.65;;;18.00;54.60;;;;;;4696663;30;20175;-86
2023/03/25 03:38:42;;;;;;;0.60;0.60;;;18.10;54.80;;;;;;4703727;30;20301;-86
2023/03/25 03:41:12;;;;;;;0.60;0.60;;;18.10;54.70;;;;;;4751466;30;20199;-85
2023/03/25 03:43:48;;;;;;;0.50;0.50;;;18.00;54.70;;;;;;4781379;30;20192;-85
2023/03/25 03:46:24;;;;;;;0.50;0.50;;;18.00;54.70;;;;;;4751569;30;20219;-86
2023/03/25 03:48:57;;;;;;;0.50;0.50;;;18.00;54.70;;;;;;4781383;30;20168;-86
2023/03/25 03:51:35;;;;;;;0.40;0.38;;;18.10;54.80;;;;;;4800547;29;20577;-86
2023/03/25 03:54:23;;;;;;;0.50;0.50;;;18.10;54.90;;;;;;4788173;29;20283;-86
2023/03/25 03:56:57;;;;;;;0.60;0.60;;;18.00;54.80;;;;;;4814734;29;20181;-86
2023/03/25 03:59:46;;;;;;;0.80;0.43;;;18.00;54.80;;;;;;4840046;29;20261;-87
2023/03/25 04:02:25;;;;;;;0.40;0.40;;;18.00;55.00;;;;;;4808859;29;20193;-87
2023/03/25 04:04:52;;;;;;;0.60;0.60;;;18.10;54.90;;;;;;4795411;29;20192;-86
2023/03/25 04:07:27;;;;;;;0.55;0.50;;;18.00;54.90;;;;;;4838690;29;20217;-86
2023/03/25 04:10:03;;;;;;;0.50;0.50;;;18.00;54.90;;;;;;4839002;29;20211;-86
2023/03/25 04:12:41;;;;;;;0.57;0.55;;;18.00;54.80;;;;;;4839787;29;20161;-86
2023/03/25 04:15:21;;;;;;;0.50;0.50;;;18.00;54.70;;;;;;4769705;30;20293;-86
2023/03/25 04:17:56;;;;;;;0.63;0.60;;;18.00;54.80;;;;;;4769694;30;20195;-86
2023/03/25 04:20:43;;;;;;;0.70;0.60;;;18.00;54.70;;;;;;4769153;30;20187;-86
2023/03/25 04:23:17;;;;;;;0.40;0.40;;;18.00;54.70;;;;;;4749310;30;20184;-86
2023/03/25 04:25:51;;;;;;;1.08;0.60;;;18.00;54.80;;;;;;4733551;30;20542;-86
2023/03/25 04:28:31;;;;;;;0.88;0.45;;;18.00;54.60;;;;;;4762783;30;20211;-86
2023/03/25 04:31:06;;;;;;;0.52;0.52;;;18.00;54.70;;;;;;4734724;30;20229;-86
2023/03/25 04:33:32;;;;;;;0.60;0.50;;;18.10;54.70;;;;;;4698585;30;20200;-86
2023/03/25 04:36:00;;;;;;;0.60;0.60;;;18.00;54.80;;;;;;4727508;30;20202;-86
2023/03/25 04:38:37;;;;;;;0.50;0.50;;;18.00;54.90;;;;;;4713522;30;20205;-86
2023/03/25 04:41:10;;;;;;;0.57;0.57;;;18.00;54.90;;;;;;4713028;30;20339;-86
2023/03/25 04:43:40;;;;;;;0.68;0.57;;;18.00;55.00;;;;;;4712733;30;20200;-86
2023/03/25 04:46:13;;;;;;;0.38;0.38;;;18.00;54.80;;;;;;4706024;30;20238;-86
2023/03/25 04:48:45;;;;;;;0.85;0.65;;;17.90;54.80;;;;;;4724838;30;20256;-86
2023/03/25 04:51:12;;;;;;;0.60;0.60;;;18.00;54.80;;;;;;4709850;30;20266;-86
2023/03/25 04:53:51;;;;;;;0.70;0.70;;;18.00;54.80;;;;;;4738336;30;20189;-86
2023/03/25 04:56:22;;;;;;;0.50;0.50;;;17.90;55.00;;;;;;4747644;30;20264;-86
2023/03/25 04:58:48;;;;;;;0.60;0.45;;;18.00;55.00;;;;;;4761901;30;20624;-86
2023/03/25 05:01:20;;;;;;;1.77;0.60;;;18.00;55.00;;;;;;4747631;30;20204;-86
2023/03/25 05:03:50;;;;;;;0.60;0.60;;;17.90;54.90;;;;;;4755494;30;20299;-86
2023/03/25 05:06:17;;;;;;;0.50;0.50;;;18.00;54.90;;;;;;4752961;30;20223;-86
2023/03/25 05:08:47;;;;;;;0.55;0.55;;;18.00;54.80;;;;;;4797529;30;20163;-86
2023/03/25 05:11:17;;;;;;;0.60;0.60;;;18.00;55.00;;;;;;4767790;30;20191;-86
2023/03/25 05:13:46;;;;;;;1.00;0.60;;;18.00;55.00;;;;;;4782519;30;20188;-85
2023/03/25 05:16:21;;;;;;;0.85;0.60;;;18.00;55.00;;;;;;4755208;29;20202;-86
2023/03/25 05:18:47;;;;;;;0.50;0.50;;;18.00;54.90;;;;;;4770498;29;20268;-86
2023/03/25 05:21:30;;;;;;;0.35;0.35;;;18.00;54.90;;;;;;4799919;29;20178;-87
2023/03/25 05:24:00;;;;;;;0.60;0.50;;;18.00;55.00;;;;;;4772343;29;20190;-86
2023/03/25 05:26:33;;;;;;;0.88;0.60;;;18.00;55.10;;;;;;4800148;29;20205;-87
2023/03/25 05:29:01;;;;;;;0.50;0.50;;;18.00;55.00;;;;;;4783590;30;20192;-87
2023/03/25 05:31:34;;;;;;;0.57;0.47;;;18.00;55.10;;;;;;4793684;29;20187;-86
2023/03/25 05:34:08;;;;;;;1.63;0.50;;;18.00;54.90;;;;;;4770671;29;20225;-87
2023/03/25 05:36:34;;;;;;;0.57;0.50;;;17.90;55.10;;;;;;4784369;29;20223;-86
2023/03/25 05:39:30;;;;;;;0.70;0.50;;;17.90;55.00;;;;;;4784964;29;20201;-86
2023/03/25 05:42:01;;;;;;;0.40;0.40;;;17.90;54.90;;;;;;4815145;29;20216;-86
2023/03/25 05:44:32;;;;;;;0.65;0.60;;;17.90;54.80;;;;;;4781811;30;20267;-86
2023/03/25 05:47:14;;;;;;;0.95;0.60;;;17.90;54.90;;;;;;4751848;30;20642;-86
2023/03/25 05:49:40;;;;;;;0.75;0.60;;;17.90;55.00;;;;;;4752092;30;20715;-87
2023/03/25 05:52:10;;;;;;;0.60;0.50;;;17.90;54.80;;;;;;4767360;30;20179;-86
2023/03/25 05:54:50;;;;;;;0.50;0.50;;;17.90;54.90;;;;;;4764333;30;20192;-87
2023/03/25 05:57:21;;;;;;;0.52;0.50;;;17.90;55.10;;;;;;4721397;30;20192;-87
2023/03/25 05:59:50;;;;;;;0.50;0.50;;;17.80;54.90;;;;;;4742143;30;20192;-87
2023/03/25 06:02:25;;;;;;;0.70;0.60;;;17.80;55.00;;;;;;4767781;30;20183;-87
2023/03/25 06:04:55;;;;;;;0.50;0.50;;;17.90;55.00;;;;;;4767534;30;20199;-87
2023/03/25 06:07:37;;;;;;;0.63;0.55;;;17.90;55.00;;;;;;4781609;30;20223;-86
2023/03/25 06:10:15;;;;;;;0.47;0.45;;;17.90;55.10;;;;;;4767364;30;20192;-87
2023/03/25 06:12:45;;;;;;;0.60;0.60;;;17.90;55.00;;;;;;4784040;30;20172;-87
2023/03/25 06:15:16;;;;;;;0.60;0.60;;;17.90;55.10;;;;;;4781735;29;20194;-87
2023/03/25 06:17:52;;;;;;;0.57;0.50;;;17.90;55.10;;;;;;4803854;29;20178;-86
2023/03/25 06:20:24;;;;;;;0.57;0.43;;;17.90;55.00;;;;;;4832472;29;20234;-87
2023/03/25 06:22:55;;;;;;;0.52;0.52;;;17.80;54.90;;;;;;4772866;29;20208;-86
2023/03/25 06:25:31;;;;;;;0.70;0.50;;;17.90;55.10;;;;;;4796009;29;20196;-86
2023/03/25 06:28:02;;;;;;;0.60;0.60;;;17.90;55.20;;;;;;4807489;29;20192;-87
2023/03/25 06:30:33;;;;;;;0.50;0.50;;;17.90;55.10;;;;;;4805173;29;20193;-86
2023/03/25 06:33:04;;;;;;;0.60;0.60;;;17.90;55.10;;;;;;4790681;29;20238;-86
2023/03/25 06:35:30;;;;;;;0.50;0.50;;;17.90;55.00;;;;;;4835590;29;20196;-86
2023/03/25 06:37:56;;;;;;;0.50;0.50;;;17.90;55.10;;;;;;4835708;29;20233;-86
2023/03/25 06:40:38;;;;;;;0.47;0.45;;;17.80;55.10;;;;;;4824109;29;20296;-86
2023/03/25 06:43:08;;;;;;;0.65;0.65;;;18.00;55.10;;;;;;4808893;29;20205;-86
2023/03/25 06:45:50;;;;;;;0.60;0.60;;;17.90;55.10;;;;;;4779315;29;20209;-87
2023/03/25 06:48:16;;;;;;;0.55;0.47;;;17.90;55.10;;;;;;4794947;29;20189;-86
2023/03/25 06:50:47;;;;;;;0.60;0.60;;;17.90;55.20;;;;;;4839475;29;20185;-86
2023/03/25 06:53:17;;;;;;;0.55;0.43;;;17.80;55.10;;;;;;4808297;29;20200;-86
2023/03/25 06:55:48;;;;;;;0.40;0.40;;;17.90;55.10;;;;;;4794000;29;20189;-86
2023/03/25 06:58:33;;;;;;;0.50;0.50;;;17.80;55.10;;;;;;4793709;29;20214;-85
2023/03/25 07:01:05;;;;;;;0.40;0.40;;;17.90;55.10;;;;;;4840491;29;20189;-86
2023/03/25 07:03:40;;;;;;;1.30;0.50;;;17.90;55.10;;;;;;4810407;29;20197;-86
2023/03/25 07:06:22;;;;;;;0.50;0.50;;;17.90;55.20;;;;;;4809986;29;20281;-86
2023/03/25 07:08:51;;;;;;;0.65;0.50;;;17.90;55.30;;;;;;4812837;29;20193;-86
2023/03/25 07:11:44;;;;;;;0.75;0.60;;;17.90;55.10;;;;;;4840171;29;20195;-86
2023/03/25 07:14:17;;;;;;;0.60;0.50;;;17.90;55.20;;;;;;4806784;29;20185;-87
2023/03/25 07:17:12;;;;;;;;;;;;;;;;;;;;;
2023/03/25 07:19:46;;;;;;;0.50;0.50;;;17.90;55.20;;;;;;4733146;30;20268;-87
2023/03/25 07:22:26;;;;;;;0.50;0.50;;;17.80;55.10;;;;;;4750430;30;20192;-87
2023/03/25 07:24:52;;;;;;;0.50;0.50;;;17.90;55.00;;;;;;4728876;30;20225;-87
2023/03/25 07:27:18;;;;;;;0.50;0.50;;;17.90;55.10;;;;;;4744007;30;20221;-87
2023/03/25 07:30:17;;;;;;;0.50;0.50;;;17.90;54.80;;;;;;4743717;30;20166;-87
2023/03/25 07:33:18;;;;;;;1.00;0.88;;;17.90;55.00;;;;;;4709071;30;20191;-88
2023/03/25 07:35:45;;;;;;;0.40;0.40;;;17.80;54.90;;;;;;4697728;30;20663;-87
2023/03/25 07:38:15;;;;;;;0.60;0.50;;;17.90;54.90;;;;;;4695679;30;20739;-87
2023/03/25 07:40:43;;;;;;;0.85;0.60;;;17.90;55.10;;;;;;4704426;30;20203;-87
2023/03/25 07:43:20;;;;;;;0.50;0.50;;;17.90;55.00;;;;;;4660159;30;20611;-87
2023/03/25 07:45:49;;;;;;;0.63;0.50;;;17.90;55.20;;;;;;4677513;30;20250;-87
2023/03/25 07:48:21;;;;;;;0.50;0.50;;;17.80;55.10;;;;;;4718708;30;20198;-88
2023/03/25 07:51:03;;;;;;;0.50;0.50;;;17.90;55.10;;;;;;4746598;30;20197;-87
2023/03/25 07:53:41;;;;;;;0.73;0.73;;;17.90;54.90;;;;;;4713820;30;20194;-89
2023/03/25 07:56:27;;;;;;;0.55;0.55;;;17.90;55.00;;;;;;4724044;30;20191;-87
2023/03/25 07:59:00;;;;;;;0.95;0.65;;;18.00;55.00;;;;;;4722091;30;20586;-87
2023/03/25 08:01:27;;;;;;;0.73;0.68;;;18.00;54.80;;;;;;4706723;30;20248;-86
2023/03/25 08:03:55;;;;;;;0.50;0.50;;;18.00;54.90;;;;;;4730883;30;20292;-87
2023/03/25 08:06:39;;;;;;;0.55;0.50;;;18.00;55.00;;;;;;4761753;30;20236;-87
2023/03/25 08:09:07;;;;;;;1.98;0.40;;;18.10;54.90;;;;;;4743680;30;20200;-87
2023/03/25 08:11:33;;;;;;;0.50;0.50;;;18.10;54.70;;;;;;4755968;30;20598;-86
2023/03/25 08:14:06;;;;;;;1.65;0.60;;;18.10;54.80;;;;;;4749247;30;20224;-87
2023/03/25 08:16:33;;;;;;;0.45;0.40;;;18.10;54.70;;;;;;4773909;30;20249;-86
2023/03/25 08:19:03;;;;;;;0.55;0.52;;;18.00;54.80;;;;;;4808472;29;20206;-87
2023/03/25 08:21:32;;;;;;;0.75;0.52;;;18.00;54.80;;;;;;4799709;29;20713;-87
2023/03/25 08:24:01;;;;;;;1.67;0.70;;;18.00;54.80;;;;;;4813796;29;20321;-85
2023/03/25 08:26:36;;;;;;;0.47;0.47;;;18.10;54.90;;;;;;4803607;29;20563;-87
2023/03/25 08:29:21;;;;;;;0.57;0.57;;;18.10;54.70;;;;;;4816928;29;20205;-86
2023/03/25 08:31:51;;;;;;;3.97;0.50;;;18.20;54.60;;;;;;4817441;29;20197;-87
2023/03/25 08:34:19;;;;;;;0.50;0.50;;;18.20;54.20;;;;;;4819279;29;20182;-87
2023/03/25 08:37:00;;;;;;;1.70;0.50;;;18.20;54.20;;;;;;4788806;29;20286;-87
2023/03/25 08:39:35;;;;;;;0.85;0.60;;;18.20;54.10;;;;;;4819459;29;20267;-86
2023/03/25 08:42:25;;;;;;;1.55;0.50;;;18.30;53.50;;;;;;4819372;29;20212;-86
2023/03/25 08:44:55;;;;;;;2.03;0.60;;;18.40;53.30;;;;;;4825997;29;20198;-86
2023/03/25 08:47:21;;;;;;;2.28;0.63;;;18.40;53.20;;;;;;4790218;29;20214;-86
2023/03/25 08:49:50;;;;;;;0.50;0.43;;;18.40;53.30;;;;;;4818629;29;20193;-85
2023/03/25 08:52:20;;;;;;;0.82;0.55;;;18.40;53.40;;;;;;4800902;29;20170;-86
2023/03/25 08:54:52;;;;;;;1.88;0.70;;;18.50;53.40;;;;;;4766587;30;20206;-84
2023/03/25 08:57:17;;;;;;;1.73;0.55;;;18.60;53.30;;;;;;4803145;29;20437;-86
2023/03/25 09:00:17;;;;;;;1.05;0.50;;;18.40;53.40;;;;;;4799227;29;20228;-85
2023/03/25 09:03:00;;;;;;;1.27;0.80;;;18.50;53.50;;;;;;4799633;29;20584;-85
2023/03/25 09:05:48;;;;;;;1.92;0.70;;;18.50;53.60;;;;;;4789226;29;20210;-85
2023/03/25 09:08:27;;;;;;;3.83;0.57;;;18.50;53.70;;;;;;4786272;29;20190;-87
2023/03/25 09:11:11;;;;;;;0.88;0.50;;;18.50;53.90;;;;;;4799038;29;20170;-85
2023/03/25 09:13:41;;;;;;;1.63;0.50;;;18.50;54.10;;;;;;4783267;30;20188;-86
2023/03/25 09:16:10;;;;;;;7.45;0.70;;;18.60;53.70;;;;;;4791921;30;20252;-86
2023/03/25 09:18:40;;;;;;;0.70;0.50;;;18.60;53.60;;;;;;4792499;29;20195;-87
2023/03/25 09:21:10;;;;;;;2.83;0.50;;;18.70;53.30;;;;;;4795586;30;20207;-85
2023/03/25 09:23:42;;;;;;;3.28;0.68;;;18.60;53.40;;;;;;4795583;30;20195;-85
2023/03/25 09:26:08;;;;;;;3.83;0.68;;;18.60;53.60;;;;;;4775583;30;20212;-84
2023/03/25 09:28:35;;;;;;;1.40;0.80;;;18.50;53.60;;;;;;4776404;30;20184;-86
2023/03/25 09:31:04;;;;;;;1.63;0.45;;;18.50;53.70;;;;;;4774378;30;20251;-84
2023/03/25 09:33:32;;;;;;;2.28;0.40;;;18.60;53.30;;;;;;4760206;30;20298;-85
2023/03/25 09:36:06;;;;;;;3.10;0.50;;;18.60;53.50;;;;;;4784444;29;20190;-86
2023/03/25 09:38:34;;;;;;;2.28;0.63;;;18.70;53.70;;;;;;4780405;29;20573;-85
2023/03/25 09:41:20;;;;;;;6.88;0.75;;;18.60;53.80;;;;;;4805319;29;20185;-84
2023/03/25 09:44:20;;;;;;;0.63;0.55;;;18.60;53.60;;;;;;4749587;30;20191;-84
2023/03/25 09:47:10;;;;;;;3.30;0.40;;;18.60;53.30;;;;;;4792879;29;20203;-86
2023/03/25 09:49:43;;;;;;;2.85;0.40;;;18.70;53.30;;;;;;4792927;30;20191;-86
2023/03/25 09:52:17;;;;;;;2.58;0.50;;;18.80;53.20;;;;;;4810917;29;20205;-86
2023/03/25 09:54:54;;;;;;;3.05;0.80;;;18.70;53.60;;;;;;4806179;29;20197;-88
2023/03/25 09:57:25;;;;;;;1.88;0.73;;;18.70;53.60;;;;;;4835055;29;20196;-84
2023/03/25 10:00:00;;;;;;;4.00;0.50;;;18.80;53.60;;;;;;4840679;29;20189;-84
2023/03/25 10:02:42;;;;;;;4.57;0.70;;;18.70;53.80;;;;;;4845455;29;20216;-85
2023/03/25 10:05:33;;;;;;;2.17;0.65;;;18.70;53.90;;;;;;4847567;29;20283;-84
2023/03/25 10:08:12;;;;;;;4.22;0.70;;;18.70;53.60;;;;;;4832256;29;20667;-85
2023/03/25 10:10:41;;;;;;;1.70;0.60;;;18.70;53.60;;;;;;4866763;29;20177;-85
2023/03/25 10:13:15;;;;;;;6.75;0.60;;;18.70;54.00;;;;;;4848601;29;20233;-85
2023/03/25 10:15:55;;;;;;;4.20;0.73;;;18.70;54.30;;;;;;4835072;29;20216;-85
2023/03/25 10:18:59;;;;;;;3.13;0.60;;;18.60;54.40;;;;;;4838315;29;20172;-86
2023/03/25 10:21:49;;;;;;;1.83;0.60;;;18.60;54.40;;;;;;4852089;29;20601;-85
2023/03/25 10:24:39;;;;;;;3.85;0.77;;;18.60;54.20;;;;;;4869729;29;20157;-84
2023/03/25 10:27:23;;;;;;;3.08;0.55;;;18.70;54.70;;;;;;4840959;29;20341;-85
2023/03/25 10:29:54;;;;;;;4.55;0.52;;;18.70;54.20;;;;;;4842627;29;20633;-86
2023/03/25 10:33:06;;;;;;;3.08;0.65;;;18.70;54.30;;;;;;4853069;29;20215;-85
2023/03/25 10:35:41;;;;;;;5.80;0.55;;;18.60;54.20;;;;;;4838374;29;20161;-86
2023/03/25 10:38:20;;;;;;;7.38;0.82;;;18.70;54.10;;;;;;4823862;29;20296;-86
2023/03/25 10:40:49;;;;;;;5.13;0.70;;;18.70;54.10;;;;;;4825191;29;20207;-85
2023/03/25 10:43:22;;;;;;;3.33;0.50;;;18.70;54.10;;;;;;4800471;29;20187;-84
2023/03/25 10:45:50;;;;;;;4.97;0.68;;;18.70;54.20;;;;;;4788152;29;20265;-85
2023/03/25 10:48:24;;;;;;;2.95;0.50;;;18.70;53.70;;;;;;4800659;30;20188;-85
2023/03/25 10:50:52;;;;;;;1.67;0.60;;;18.70;54.00;;;;;;4792587;29;20234;-85
2023/03/25 10:54:05;;;;;;;2.38;0.52;;;18.60;54.10;;;;;;4803132;29;20186;-85
2023/03/25 10:56:25;;;;;;;1.65;0.60;;;18.70;53.50;;;;;;4778408;29;20195;-86
2023/03/25 10:59:00;;;;;;;5.65;0.82;;;18.70;53.50;;;;;;4767472;30;20215;-86
2023/03/25 11:01:39;;;;;;;3.97;0.70;;;18.60;53.50;;;;;;4753346;30;20215;-86
2023/03/25 11:04:23;;;;;;;1.48;0.50;;;18.60;53.80;;;;;;4748558;30;20189;-86
2023/03/25 11:06:57;;;;;;;1.30;0.80;;;18.60;53.60;;;;;;4764298;30;20193;-86
2023/03/25 11:09:35;;;;;;;2.97;0.55;;;18.60;54.00;;;;;;4742510;30;20194;-87
2023/03/25 11:12:10;;;;;;;2.65;0.75;;;18.60;54.30;;;;;;4746122;30;20276;-86
2023/03/25 11:14:41;;;;;;;4.35;0.80;;;18.60;54.60;;;;;;4733511;30;20192;-86
2023/03/25 11:17:16;;;;;;;2.83;0.70;;;18.60;55.20;;;;;;4731513;30;20320;-87
2023/03/25 11:20:01;;;;;;;5.97;1.05;;;18.70;54.80;;;;;;4727776;30;20189;-86
2023/03/25 11:22:37;;;;;;;2.42;0.47;;;18.60;54.70;;;;;;4715776;30;20197;-86
2023/03/25 11:25:56;;;;;;;6.53;0.90;;;18.70;55.40;;;;;;4696270;30;20193;-86
2023/03/25 11:28:55;;;;;;;5.78;0.93;;;18.70;54.60;;;;;;4700351;30;20206;-86
2023/03/25 11:31:25;;;;;;;3.40;0.80;;;18.70;54.50;;;;;;4718357;30;20197;-83
2023/03/25 11:34:40;;;;;;;2.63;0.80;;;18.70;54.20;;;;;;4731629;30;20281;-83
2023/03/25 11:37:14;;;;;;;2.53;0.73;;;18.70;54.70;;;;;;4735850;30;20220;-83
2023/03/25 11:39:42;;;;;;;2.42;0.95;;;18.70;53.70;;;;;;4728717;30;20197;-82
2023/03/25 11:42:49;;;;;;;;;;;;;;;;;;;;;
2023/03/25 11:45:37;;;;;;;4.15;0.80;;;18.70;54.00;;;;;;4736611;30;20287;-83
2023/03/25 11:48:24;;;;;;;;;;;;;;;;;;;;;
2023/03/25 11:51:07;;;;;;;8.93;1.55;;;18.70;54.10;;;;;;4785625;29;20723;-83
2023/03/25 11:53:54;;;;;;;3.00;0.75;;;18.70;54.10;;;;;;4800401;29;20186;-83
2023/03/25 11:56:48;;;;;;;2.72;0.70;;;18.70;54.10;;;;;;4798624;29;20181;-83
2023/03/25 11:59:32;;;;;;;3.67;0.80;;;18.70;54.10;;;;;;4802388;29;20190;-83
2023/03/25 12:02:26;;;;;;;2.85;0.77;;;18.60;54.30;;;;;;4792185;30;20183;-83
2023/03/25 12:05:07;;;;;;;1.27;0.65;;;18.70;54.30;;;;;;4795256;30;20674;-83
2023/03/25 12:07:50;;;;;;;3.58;0.77;;;18.70;54.20;;;;;;4795756;30;20215;-82
2023/03/25 12:10:29;;;;;;;1.52;0.70;;;18.70;53.90;;;;;;4794322;29;20192;-84
2023/03/25 12:13:06;;;;;;;1.05;0.63;;;18.80;54.40;;;;;;4780726;30;20206;-85
2023/03/25 12:15:34;;;;;;;2.15;0.88;;;18.70;54.20;;;;;;4813018;29;20601;-85
2023/03/25 12:18:48;;;;;;;4.30;0.80;;;18.70;54.30;;;;;;4802688;29;20515;-84
2023/03/25 12:21:33;;;;;;;2.35;0.70;;;18.70;54.20;;;;;;4831938;29;20245;-85
2023/03/25 12:24:15;;;;;;;3.17;0.70;;;18.70;54.10;;;;;;4802996;29;20194;-86
2023/03/25 12:27:11;;;;;;;3.67;0.80;;;18.80;53.90;;;;;;4816809;29;20221;-85
2023/03/25 12:29:46;;;;;;;4.80;0.82;;;18.70;53.70;;;;;;4818035;29;20266;-83
2023/03/25 12:32:22;;;;;;;2.85;0.80;;;18.70;53.60;;;;;;4812727;29;20181;-86
2023/03/25 12:35:14;;;;;;;1.60;0.63;;;18.70;53.50;;;;;;4854650;29;20177;-84
2023/03/25 12:38:13;;;;;;;2.00;0.80;;;18.70;53.10;;;;;;4812623;29;20225;-84
2023/03/25 12:41:09;;;;;;;2.25;1.20;;;18.60;53.00;;;;;;4804657;29;20187;-85
2023/03/25 12:43:43;;;;;;;4.68;0.70;;;18.60;52.80;;;;;;4807648;29;20191;-85
2023/03/25 12:46:19;;;;;;;1.60;0.80;;;18.60;52.70;;;;;;4797258;29;20241;-84
2023/03/25 12:49:08;;;;;;;1.83;0.73;;;18.60;52.70;;;;;;4804039;29;20212;-84
2023/03/25 12:51:54;;;;;;;1.48;0.50;;;18.60;52.70;;;;;;4795042;29;20202;-84
2023/03/25 12:54:59;;;;;;;1.83;0.75;;;18.60;52.50;;;;;;4798010;29;20183;-83
2023/03/25 12:58:05;;;;;;;1.95;0.60;;;18.60;52.40;;;;;;4788521;29;20206;-84
2023/03/25 13:00:49;;;;;;;1.70;0.68;;;18.60;52.30;;;;;;4792646;29;20253;-84
2023/03/25 13:03:36;;;;;;;1.63;0.77;;;18.60;52.10;;;;;;4806781;29;20199;-84
2023/03/25 13:06:17;;;;;;;1.50;0.82;;;18.70;52.30;;;;;;4797569;29;20211;-83
2023/03/25 13:08:50;;;;;;;1.70;0.70;;;18.60;52.60;;;;;;4812530;29;20189;-85
2023/03/25 13:11:23;;;;;;;2.35;0.80;;;18.70;52.90;;;;;;4807450;29;20217;-83
2023/03/25 13:13:51;;;;;;;1.77;0.93;;;18.70;52.80;;;;;;4801767;29;20584;-84
2023/03/25 13:16:21;;;;;;;2.92;0.60;;;18.70;52.60;;;;;;4791268;29;20308;-84
2023/03/25 13:19:02;;;;;;;1.00;0.70;;;18.70;52.70;;;;;;4815341;29;20175;-81
2023/03/25 13:21:37;;;;;;;3.20;0.90;;;18.80;52.70;;;;;;4799202;29;20696;-84
2023/03/25 13:24:11;;;;;;;0.80;0.50;;;18.70;52.50;;;;;;4800698;29;20221;-85
2023/03/25 13:26:39;;;;;;;3.45;0.70;;;18.80;52.50;;;;;;4812678;29;20237;-85
2023/03/25 13:29:16;;;;;;;0.95;0.57;;;18.70;52.20;;;;;;4811363;29;20205;-86
2023/03/25 13:31:43;;;;;;;1.48;0.90;;;18.70;53.00;;;;;;4793498;30;20202;-85
2023/03/25 13:34:25;;;;;;;1.85;0.60;;;18.70;52.30;;;;;;4765515;30;20273;-85
2023/03/25 13:37:18;;;;;;;3.83;0.60;;;18.70;52.30;;;;;;4761051;30;20223;-86
2023/03/25 13:39:59;;;;;;;1.13;0.90;;;18.70;52.00;;;;;;4773866;30;20199;-85
2023/03/25 13:42:48;;;;;;;3.92;0.80;;;18.70;51.90;;;;;;4800515;29;20204;-84